Главная страница
METAR-TAF:

METAR-TAF

Аэропорты :

Дамаск, Сирия

широта: 33-25N, долгота: 036-31E, высота над уровнем моря: 608 м

Текущие метеонаблюдения

Эта сводка был подготовлена 1 час и 5 минут назад, в 23:00 UTC
Ветер 14 Узел от юго-западный
Температура 19°C
Влажность 73%
Давление 1014 hPa
Видимость 10 км и более
Нет облачности ниже 1500 м, и нет кучево-дождевой облачности

METAR: OSDI 212300Z 22014KT CAVOK 19/14 Q1014

Время: 03:05 (00:05 UTC)

Прогноз

Прогноз действительный с 22-го 00 UTC до 23-го 06 UTC
Ветер 10 Узел от юго-западный
Видимость 10 км и более
Нет облачности ниже 1500 м, и нет кучево-дождевой облачности
временами
С 22-го 12 UTC до 22-го 18 UTC
Ветер 15 Узел от западный-юго-западный с порывами до 25 Узел
Видимость: 8000 м
небольшая облачность на высоте 3000 фута

TAF: OSDI 2200/2306 22010KT CAVOK TEMPO 2212/2218 24015G25KT 8000 FEW030

Метеонаблюдения и прогнозы для более 4000 аэропортов (сводки METAR и TAF).

Имеющиеся станции представлены на карте желтыми и красными точками.

Чтобы увидеть название станции, наведите на нее мышь.

Затем щелкните, чтобы увидеть метеонаблюдения и метеопрогнозы.

Управление картой: чтобы увеличить масштаб, щелкните зеленые кнопки с черным крестиком; чтобы уменьшить масштаб, щелкните зеленую кнопку с тире; для просмотра соседних карт щелкайте зеленые стрелки.


METAR-TAF: